Chemtrans Mabuhay — A8XX9 — position and weather

sailwx.info

Track history (hours):
 
Tides and Currents Weather Stations Pressure Air Temp Water Temp Dewpoint Dewpoint Depression Visibility Wind Speed Wind Dir Waves Ship Positions

Chemtrans Mabuhay

Last reported at 2015-Jan-31 02:29 UTC. Time now 2015-Feb-01 05:43 UTC.
Position N 29°28' W 094°51'.

Length 140 m; draft 8.4 m.

Type: Tanker. MMSI: 636092180.

Date/timePositionNaut miles runAvg speedWind from/ knotsBaromVisibWave heightAir tempDewpointWater temp
2015-Jan-31 02:29N 29°28' W 094°51'1010.4
2015-Jan-31 01:33N 29°36' W 094°57'9 8.9
2015-Jan-31 00:33N 29°44' W 095°02'6 6.2
2015-Jan-30 23:34N 29°44' W 095°09'6 5.7
2015-Jan-30 22:33N 29°44' W 095°16'2 1.6
2015-Jan-30 21:31N 29°45' W 095°17'0 0.0
2015-Jan-30 20:31N 29°45' W 095°17'0 0.0
2015-Jan-30 19:31N 29°45' W 095°17'0 0.0
2015-Jan-30 18:31N 29°45' W 095°17'0 0.0
2015-Jan-30 17:31N 29°45' W 095°17'0 0.0
2015-Jan-30 16:31N 29°45' W 095°17'0 0.0
2015-Jan-30 15:31N 29°45' W 095°17'0 0.0
2015-Jan-30 14:28N 29°45' W 095°17'0 0.0
2015-Jan-30 13:28N 29°45' W 095°17'0 0.0
2015-Jan-30 12:31N 29°45' W 095°17'0 0.0
2015-Jan-30 11:31N 29°45' W 095°17'0 0.0
2015-Jan-30 10:31N 29°45' W 095°17'0 0.0
2015-Jan-30 09:31N 29°45' W 095°17'0 0.0
2015-Jan-30 08:28N 29°45' W 095°17'0 0.0
2015-Jan-30 07:33N 29°45' W 095°17'2 1.6
2015-Jan-30 06:34N 29°44' W 095°16'5 5.4
2015-Jan-30 05:33N 29°45' W 095°10'7 6.7
2015-Jan-30 04:34N 29°44' W 095°02'10 9.7
2015-Jan-30 03:34N 29°35' W 094°56'1211.6
2015-Jan-30 02:33N 29°25' W 094°50'  
2015-Jan-25 15:11N 29°58' W 090°16'0 0.0
2015-Jan-25 14:29N 29°58' W 090°16'0 0.0
2015-Jan-25 13:32N 29°58' W 090°16'0 0.0
2015-Jan-25 12:29N 29°58' W 090°16'6 0.5
2015-Jan-25 01:24N 29°57' W 090°09'  
Track history (hours):
 
Tides and Currents Weather Stations Pressure Air Temp Water Temp Dewpoint Dewpoint Depression Visibility Wind Speed Wind Dir Waves Ship Positions

Chemtrans Mabuhay

Last reported at 2015-Jan-31 02:29 UTC. Time now 2015-Feb-01 05:43 UTC.
Position N 29°28' W 094°51'.

Length 140 m; draft 8.4 m.

Type: Tanker. MMSI: 636092180.

Date/timePositionNaut miles runAvg speedWind from/ knotsBaromVisibWave heightAir tempDewpointWater temp
2015-Jan-31 02:29N 29°28' W 094°51'1010.4
2015-Jan-31 01:33N 29°36' W 094°57'9 8.9
2015-Jan-31 00:33N 29°44' W 095°02'6 6.2
2015-Jan-30 23:34N 29°44' W 095°09'6 5.7
2015-Jan-30 22:33N 29°44' W 095°16'2 1.6
2015-Jan-30 21:31N 29°45' W 095°17'0 0.0
2015-Jan-30 20:31N 29°45' W 095°17'0 0.0
2015-Jan-30 19:31N 29°45' W 095°17'0 0.0
2015-Jan-30 18:31N 29°45' W 095°17'0 0.0
2015-Jan-30 17:31N 29°45' W 095°17'0 0.0
2015-Jan-30 16:31N 29°45' W 095°17'0 0.0
2015-Jan-30 15:31N 29°45' W 095°17'0 0.0
2015-Jan-30 14:28N 29°45' W 095°17'0 0.0
2015-Jan-30 13:28N 29°45' W 095°17'0 0.0
2015-Jan-30 12:31N 29°45' W 095°17'0 0.0
2015-Jan-30 11:31N 29°45' W 095°17'0 0.0
2015-Jan-30 10:31N 29°45' W 095°17'0 0.0
2015-Jan-30 09:31N 29°45' W 095°17'0 0.0
2015-Jan-30 08:28N 29°45' W 095°17'0 0.0
2015-Jan-30 07:33N 29°45' W 095°17'2 1.6
2015-Jan-30 06:34N 29°44' W 095°16'5 5.4
2015-Jan-30 05:33N 29°45' W 095°10'7 6.7
2015-Jan-30 04:34N 29°44' W 095°02'10 9.7
2015-Jan-30 03:34N 29°35' W 094°56'1211.6
2015-Jan-30 02:33N 29°25' W 094°50'  
2015-Jan-25 15:11N 29°58' W 090°16'0 0.0
2015-Jan-25 14:29N 29°58' W 090°16'0 0.0
2015-Jan-25 13:32N 29°58' W 090°16'0 0.0
2015-Jan-25 12:29N 29°58' W 090°16'6 0.5
2015-Jan-25 01:24N 29°57' W 090°09'  

Dump ship's entire track history